KHVR/HVR METAR and TAF weather

Enter ICAO airport designator
Station Type Date Time Source
KHVR METAR 2021/05/13 00:53 UTC NOAA

KHVR 130053Z AUTO 26003KT 10SM CLR 18/M01 A3009 RMK AO2 SLP191 T01781011


Station Type Date Time Source
KHVR Decoded METAR 2021/05/13 00:53 UTC NOAA

HAVRE CITY-COUNTY AIRPORT, MT, United States (KHVR) 48-33N 109-46W 787M
May 12, 2021 - 08:53 PM EDT / 2021.05.13 0053 UTC
Wind: from the W (260 degrees) at 3 MPH (3 KT):0
Visibility: 10 mile(s):0
Sky conditions: clear
Temperature: 64.0 F (17.8 C)
Dew Point: 30.0 F (-1.1 C)
Relative Humidity: 27%
Pressure (altimeter): 30.09 in. Hg (1018 hPa)
ob: KHVR 130053Z AUTO 26003KT 10SM CLR 18/M01 A3009 RMK AO2 SLP191 T01781011
cycle: 1

Station Type Date Time Source
KHVR TAF 2021/05/12 18:45 UTC NOAA

TAF KHVR 121742Z 1218/1318 28008KT P6SM FEW250
FM131300 VRB06KT P6SM SCT050 BKN090

Example: see airport list